sensor_id;sensor_type;location;lat;lon;timestamp;pressure;altitude;pressure_sealevel;temperature;humidity
41062;BME280;26812;42.662;23.352;2022-10-16T00:00:44;95553.44;;;11.05;68.98
41062;BME280;26812;42.662;23.352;2022-10-16T00:03:10;95565.50;;;11.07;68.91
41062;BME280;26812;42.662;23.352;2022-10-16T00:05:43;95571.59;;;10.99;68.73
41062;BME280;26812;42.662;23.352;2022-10-16T00:08:11;95567.97;;;10.81;69.75
41062;BME280;26812;42.662;23.352;2022-10-16T00:10:37;95549.91;;;10.54;70.69
41062;BME280;26812;42.662;23.352;2022-10-16T00:13:04;95571.38;;;10.60;71.35
41062;BME280;26812;42.662;23.352;2022-10-16T00:15:32;95561.00;;;10.53;71.20
41062;BME280;26812;42.662;23.352;2022-10-16T00:17:58;95562.06;;;10.66;70.74
41062;BME280;26812;42.662;23.352;2022-10-16T00:20:23;95556.81;;;10.47;70.79
41062;BME280;26812;42.662;23.352;2022-10-16T00:22:49;95555.41;;;10.49;70.92
41062;BME280;26812;42.662;23.352;2022-10-16T00:25:14;95558.50;;;10.56;70.74
41062;BME280;26812;42.662;23.352;2022-10-16T00:27:40;95564.56;;;10.62;70.88
41062;BME280;26812;42.662;23.352;2022-10-16T00:30:05;95566.56;;;10.56;70.91
41062;BME280;26812;42.662;23.352;2022-10-16T00:32:33;95580.84;;;10.57;70.78
41062;BME280;26812;42.662;23.352;2022-10-16T00:34:58;95588.66;;;10.45;71.26
41062;BME280;26812;42.662;23.352;2022-10-16T00:37:24;95576.97;;;10.49;70.72
41062;BME280;26812;42.662;23.352;2022-10-16T00:39:49;95578.47;;;10.42;70.51
41062;BME280;26812;42.662;23.352;2022-10-16T00:42:16;95588.03;;;10.48;70.75
41062;BME280;26812;42.662;23.352;2022-10-16T00:44:54;95575.97;;;10.45;70.24
41062;BME280;26812;42.662;23.352;2022-10-16T00:47:30;95557.81;;;10.23;70.70
41062;BME280;26812;42.662;23.352;2022-10-16T00:50:00;95570.25;;;10.19;70.99
41062;BME280;26812;42.662;23.352;2022-10-16T00:52:27;95581.75;;;10.25;71.26
41062;BME280;26812;42.662;23.352;2022-10-16T00:54:54;95572.06;;;10.24;71.52
41062;BME280;26812;42.662;23.352;2022-10-16T00:57:20;95566.47;;;10.20;70.85
41062;BME280;26812;42.662;23.352;2022-10-16T00:59:46;95559.06;;;10.12;71.15
41062;BME280;26812;42.662;23.352;2022-10-16T01:02:14;95584.75;;;10.05;71.82
41062;BME280;26812;42.662;23.352;2022-10-16T01:04:56;95579.88;;;9.93;72.32
41062;BME280;26812;42.662;23.352;2022-10-16T01:08:08;95566.66;;;9.78;71.92
41062;BME280;26812;42.662;23.352;2022-10-16T01:10:57;95590.34;;;9.94;72.34
41062;BME280;26812;42.662;23.352;2022-10-16T01:13:27;95557.00;;;9.77;72.09
41062;BME280;26812;42.662;23.352;2022-10-16T01:16:09;95598.72;;;10.07;71.86
41062;BME280;26812;42.662;23.352;2022-10-16T01:18:44;95582.06;;;10.05;71.31
41062;BME280;26812;42.662;23.352;2022-10-16T01:29:30;95571.03;;;9.74;71.75
41062;BME280;26812;42.662;23.352;2022-10-16T01:32:05;95558.06;;;9.62;72.16
41062;BME280;26812;42.662;23.352;2022-10-16T01:34:40;95566.84;;;9.68;72.02
41062;BME280;26812;42.662;23.352;2022-10-16T01:37:13;95567.72;;;9.63;72.87
41062;BME280;26812;42.662;23.352;2022-10-16T01:39:42;95555.75;;;9.55;72.51
41062;BME280;26812;42.662;23.352;2022-10-16T01:42:22;95560.94;;;9.52;72.53
41062;BME280;26812;42.662;23.352;2022-10-16T01:44:51;95562.13;;;9.59;72.19
41062;BME280;26812;42.662;23.352;2022-10-16T01:47:22;95563.66;;;9.47;72.74
41062;BME280;26812;42.662;23.352;2022-10-16T01:49:49;95550.53;;;9.45;72.42
41062;BME280;26812;42.662;23.352;2022-10-16T01:52:19;95571.13;;;9.69;72.52
41062;BME280;26812;42.662;23.352;2022-10-16T01:54:47;95585.50;;;9.78;72.13
41062;BME280;26812;42.662;23.352;2022-10-16T01:57:15;95573.53;;;9.70;72.28
41062;BME280;26812;42.662;23.352;2022-10-16T01:59:47;95576.91;;;9.76;72.08
41062;BME280;26812;42.662;23.352;2022-10-16T02:02:15;95575.53;;;9.78;71.57
41062;BME280;26812;42.662;23.352;2022-10-16T02:04:45;95594.16;;;9.75;72.14
41062;BME280;26812;42.662;23.352;2022-10-16T02:07:11;95588.03;;;9.55;72.83
41062;BME280;26812;42.662;23.352;2022-10-16T02:09:37;95590.94;;;9.59;72.34
41062;BME280;26812;42.662;23.352;2022-10-16T02:12:10;95594.84;;;9.67;72.52
41062;BME280;26812;42.662;23.352;2022-10-16T02:14:38;95599.25;;;9.76;71.87
41062;BME280;26812;42.662;23.352;2022-10-16T02:17:15;95601.34;;;9.79;71.92
41062;BME280;26812;42.662;23.352;2022-10-16T02:19:48;95597.19;;;9.87;71.77
41062;BME280;26812;42.662;23.352;2022-10-16T02:24:53;95612.16;;;9.93;71.40
41062;BME280;26812;42.662;23.352;2022-10-16T02:27:23;95611.56;;;9.96;71.32
41062;BME280;26812;42.662;23.352;2022-10-16T02:29:54;95609.09;;;10.00;71.26
41062;BME280;26812;42.662;23.352;2022-10-16T02:32:28;95602.00;;;9.90;71.49
41062;BME280;26812;42.662;23.352;2022-10-16T02:34:56;95597.81;;;9.98;71.02
41062;BME280;26812;42.662;23.352;2022-10-16T02:37:23;95613.25;;;9.92;71.46
41062;BME280;26812;42.662;23.352;2022-10-16T02:39:49;95609.06;;;9.86;71.30
41062;BME280;26812;42.662;23.352;2022-10-16T02:42:17;95579.28;;;9.63;71.49
41062;BME280;26812;42.662;23.352;2022-10-16T02:44:42;95612.97;;;9.61;72.05
41062;BME280;26812;42.662;23.352;2022-10-16T02:47:08;95611.06;;;9.43;72.60
41062;BME280;26812;42.662;23.352;2022-10-16T02:49:33;95613.63;;;9.53;71.87
41062;BME280;26812;42.662;23.352;2022-10-16T02:51:59;95610.56;;;9.59;71.84
41062;BME280;26812;42.662;23.352;2022-10-16T02:54:24;95596.19;;;9.50;71.34
41062;BME280;26812;42.662;23.352;2022-10-16T02:56:49;95622.28;;;9.50;71.63
41062;BME280;26812;42.662;23.352;2022-10-16T02:59:15;95626.19;;;9.57;71.26
41062;BME280;26812;42.662;23.352;2022-10-16T03:01:41;95626.88;;;9.49;71.21
41062;BME280;26812;42.662;23.352;2022-10-16T03:04:06;95636.59;;;9.45;71.77
41062;BME280;26812;42.662;23.352;2022-10-16T03:06:31;95629.97;;;9.38;71.68
41062;BME280;26812;42.662;23.352;2022-10-16T03:08:57;95634.94;;;9.30;71.57
41062;BME280;26812;42.662;23.352;2022-10-16T03:11:22;95624.31;;;9.20;72.08
41062;BME280;26812;42.662;23.352;2022-10-16T03:13:48;95630.34;;;9.31;71.94
41062;BME280;26812;42.662;23.352;2022-10-16T03:16:13;95627.31;;;9.19;72.14
41062;BME280;26812;42.662;23.352;2022-10-16T03:18:38;95637.47;;;9.22;72.29
41062;BME280;26812;42.662;23.352;2022-10-16T03:21:04;95631.84;;;9.18;72.13
41062;BME280;26812;42.662;23.352;2022-10-16T03:23:29;95619.66;;;9.07;71.98
41062;BME280;26812;42.662;23.352;2022-10-16T03:25:55;95634.97;;;9.07;72.03
41062;BME280;26812;42.662;23.352;2022-10-16T03:28:20;95635.19;;;8.91;72.88
41062;BME280;26812;42.662;23.352;2022-10-16T03:30:46;95646.78;;;8.87;73.41
41062;BME280;26812;42.662;23.352;2022-10-16T03:33:11;95642.78;;;8.84;73.61
41062;BME280;26812;42.662;23.352;2022-10-16T03:35:36;95632.47;;;8.73;73.78
41062;BME280;26812;42.662;23.352;2022-10-16T03:38:02;95628.25;;;8.85;72.94
41062;BME280;26812;42.662;23.352;2022-10-16T03:40:27;95651.09;;;8.88;73.35
41062;BME280;26812;42.662;23.352;2022-10-16T03:42:53;95643.59;;;8.85;72.94
41062;BME280;26812;42.662;23.352;2022-10-16T03:45:22;95647.34;;;8.65;72.85
41062;BME280;26812;42.662;23.352;2022-10-16T03:47:48;95641.50;;;8.58;74.15
41062;BME280;26812;42.662;23.352;2022-10-16T03:50:13;95641.69;;;8.66;74.69
41062;BME280;26812;42.662;23.352;2022-10-16T03:52:38;95638.34;;;8.75;74.24
41062;BME280;26812;42.662;23.352;2022-10-16T03:55:04;95645.47;;;8.84;73.71
41062;BME280;26812;42.662;23.352;2022-10-16T03:57:30;95644.38;;;8.85;73.67
41062;BME280;26812;42.662;23.352;2022-10-16T03:59:55;95633.78;;;8.75;73.82
41062;BME280;26812;42.662;23.352;2022-10-16T04:02:20;95636.41;;;8.80;74.03
41062;BME280;26812;42.662;23.352;2022-10-16T04:04:46;95632.81;;;8.66;73.95
41062;BME280;26812;42.662;23.352;2022-10-16T04:07:11;95632.31;;;8.64;73.92
41062;BME280;26812;42.662;23.352;2022-10-16T04:09:37;95642.75;;;8.65;73.87
41062;BME280;26812;42.662;23.352;2022-10-16T04:12:02;95641.91;;;8.70;73.68
41062;BME280;26812;42.662;23.352;2022-10-16T04:14:28;95628.25;;;8.66;73.35
41062;BME280;26812;42.662;23.352;2022-10-16T04:16:53;95637.78;;;8.78;73.17
41062;BME280;26812;42.662;23.352;2022-10-16T04:19:27;95640.47;;;8.78;73.30
41062;BME280;26812;42.662;23.352;2022-10-16T04:21:53;95632.09;;;8.60;73.71
41062;BME280;26812;42.662;23.352;2022-10-16T04:24:19;95655.50;;;8.79;73.46
41062;BME280;26812;42.662;23.352;2022-10-16T04:26:44;95616.53;;;8.57;73.34
41062;BME280;26812;42.662;23.352;2022-10-16T04:29:12;95635.72;;;8.69;73.05
41062;BME280;26812;42.662;23.352;2022-10-16T04:31:37;95654.41;;;8.80;72.88
41062;BME280;26812;42.662;23.352;2022-10-16T04:34:03;95666.59;;;8.72;72.62
41062;BME280;26812;42.662;23.352;2022-10-16T04:36:29;95628.75;;;8.45;73.74
41062;BME280;26812;42.662;23.352;2022-10-16T04:38:54;95646.88;;;8.58;72.74
41062;BME280;26812;42.662;23.352;2022-10-16T04:41:19;95657.28;;;8.64;72.83
41062;BME280;26812;42.662;23.352;2022-10-16T04:43:45;95659.84;;;8.51;72.32
41062;BME280;26812;42.662;23.352;2022-10-16T04:46:10;95652.69;;;8.41;72.57
41062;BME280;26812;42.662;23.352;2022-10-16T04:48:36;95658.00;;;8.46;72.75
41062;BME280;26812;42.662;23.352;2022-10-16T04:51:01;95665.69;;;8.58;73.26
41062;BME280;26812;42.662;23.352;2022-10-16T04:53:27;95665.69;;;8.58;73.01
41062;BME280;26812;42.662;23.352;2022-10-16T04:55:52;95665.91;;;8.61;72.45
41062;BME280;26812;42.662;23.352;2022-10-16T04:58:21;95602.06;;;8.29;72.32
41062;BME280;26812;42.662;23.352;2022-10-16T05:00:46;95675.97;;;8.75;71.55
41062;BME280;26812;42.662;23.352;2022-10-16T05:03:12;95662.47;;;8.56;71.52
41062;BME280;26812;42.662;23.352;2022-10-16T05:05:42;95684.94;;;8.65;72.40
41062;BME280;26812;42.662;23.352;2022-10-16T05:08:08;95683.03;;;8.42;73.09
41062;BME280;26812;42.662;23.352;2022-10-16T05:10:33;95686.22;;;8.44;73.58
41062;BME280;26812;42.662;23.352;2022-10-16T05:12:59;95682.81;;;8.62;73.53
41062;BME280;26812;42.662;23.352;2022-10-16T05:15:24;95689.81;;;8.63;73.18
41062;BME280;26812;42.662;23.352;2022-10-16T05:17:55;95698.81;;;8.72;73.05
41062;BME280;26812;42.662;23.352;2022-10-16T05:20:22;95679.50;;;8.70;72.49
41062;BME280;26812;42.662;23.352;2022-10-16T05:22:47;95691.28;;;8.74;73.06
41062;BME280;26812;42.662;23.352;2022-10-16T05:25:15;95698.69;;;8.82;72.65
41062;BME280;26812;42.662;23.352;2022-10-16T05:27:41;95693.91;;;8.79;72.57
41062;BME280;26812;42.662;23.352;2022-10-16T05:30:07;95691.63;;;8.67;72.83
41062;BME280;26812;42.662;23.352;2022-10-16T05:32:33;95706.53;;;8.79;72.79
41062;BME280;26812;42.662;23.352;2022-10-16T05:34:58;95689.63;;;8.78;72.72
41062;BME280;26812;42.662;23.352;2022-10-16T05:37:25;95709.06;;;8.94;72.64
41062;BME280;26812;42.662;23.352;2022-10-16T05:39:51;95703.28;;;9.06;72.42
41062;BME280;26812;42.662;23.352;2022-10-16T05:42:16;95689.25;;;9.09;72.42
41062;BME280;26812;42.662;23.352;2022-10-16T05:44:41;95702.84;;;9.17;71.70
41062;BME280;26812;42.662;23.352;2022-10-16T05:47:07;95714.16;;;9.38;71.54
41062;BME280;26812;42.662;23.352;2022-10-16T05:49:32;95703.09;;;9.40;71.20
41062;BME280;26812;42.662;23.352;2022-10-16T05:51:58;95697.22;;;9.19;72.05
41062;BME280;26812;42.662;23.352;2022-10-16T05:54:23;95710.81;;;9.27;72.40
41062;BME280;26812;42.662;23.352;2022-10-16T05:56:48;95715.47;;;9.41;72.00
41062;BME280;26812;42.662;23.352;2022-10-16T05:59:14;95728.75;;;9.32;72.07
41062;BME280;26812;42.662;23.352;2022-10-16T06:01:46;95718.88;;;9.46;71.56
41062;BME280;26812;42.662;23.352;2022-10-16T06:04:11;95727.09;;;9.74;71.05
41062;BME280;26812;42.662;23.352;2022-10-16T06:06:37;95729.81;;;9.92;70.35
41062;BME280;26812;42.662;23.352;2022-10-16T06:09:03;95748.63;;;10.11;69.62
41062;BME280;26812;42.662;23.352;2022-10-16T06:11:30;95752.63;;;10.33;69.49
41062;BME280;26812;42.662;23.352;2022-10-16T06:13:58;95750.72;;;10.66;68.71
41062;BME280;26812;42.662;23.352;2022-10-16T06:16:29;95755.44;;;11.01;67.30
41062;BME280;26812;42.662;23.352;2022-10-16T06:19:02;95755.25;;;11.25;66.14
41062;BME280;26812;42.662;23.352;2022-10-16T06:21:31;95758.28;;;11.37;64.71
41062;BME280;26812;42.662;23.352;2022-10-16T06:23:59;95756.75;;;11.45;64.93
41062;BME280;26812;42.662;23.352;2022-10-16T06:26:29;95763.94;;;11.63;64.83
41062;BME280;26812;42.662;23.352;2022-10-16T06:28:56;95751.16;;;11.55;64.63
41062;BME280;26812;42.662;23.352;2022-10-16T06:31:22;95760.41;;;11.63;63.85
41062;BME280;26812;42.662;23.352;2022-10-16T06:33:51;95768.31;;;11.73;63.38
41062;BME280;26812;42.662;23.352;2022-10-16T06:36:17;95725.75;;;11.56;63.19
41062;BME280;26812;42.662;23.352;2022-10-16T06:38:44;95722.25;;;11.56;63.05
41062;BME280;26812;42.662;23.352;2022-10-16T06:41:12;95771.56;;;12.11;63.62
41062;BME280;26812;42.662;23.352;2022-10-16T06:43:37;95773.00;;;12.31;63.26
41062;BME280;26812;42.662;23.352;2022-10-16T06:46:05;95760.53;;;11.71;61.93
41062;BME280;26812;42.662;23.352;2022-10-16T06:48:34;95768.81;;;11.89;63.03
41062;BME280;26812;42.662;23.352;2022-10-16T06:51:04;95777.34;;;12.40;61.84
41062;BME280;26812;42.662;23.352;2022-10-16T06:53:33;95775.75;;;12.62;61.04
41062;BME280;26812;42.662;23.352;2022-10-16T06:56:10;95786.00;;;12.73;60.60
41062;BME280;26812;42.662;23.352;2022-10-16T06:58:37;95792.31;;;12.91;60.64
41062;BME280;26812;42.662;23.352;2022-10-16T07:01:03;95773.91;;;13.02;59.95
41062;BME280;26812;42.662;23.352;2022-10-16T07:03:28;95778.00;;;13.22;59.59
41062;BME280;26812;42.662;23.352;2022-10-16T07:05:54;95740.16;;;13.30;58.55
41062;BME280;26812;42.662;23.352;2022-10-16T07:08:19;95778.31;;;13.77;56.99
41062;BME280;26812;42.662;23.352;2022-10-16T07:10:45;95788.09;;;14.04;57.35
41062;BME280;26812;42.662;23.352;2022-10-16T07:13:10;95799.13;;;14.42;56.27
41062;BME280;26812;42.662;23.352;2022-10-16T07:15:39;95790.50;;;15.30;54.72
41062;BME280;26812;42.662;23.352;2022-10-16T07:18:04;95791.81;;;17.29;50.15
41062;BME280;26812;42.662;23.352;2022-10-16T07:20:29;95800.78;;;19.67;43.07
41062;BME280;26812;42.662;23.352;2022-10-16T07:22:55;95786.94;;;21.23;38.68
41062;BME280;26812;42.662;23.352;2022-10-16T07:25:20;95802.06;;;21.36;37.12
41062;BME280;26812;42.662;23.352;2022-10-16T07:27:46;95808.09;;;21.03;37.91
41062;BME280;26812;42.662;23.352;2022-10-16T07:30:11;95800.19;;;20.08;39.15
41062;BME280;26812;42.662;23.352;2022-10-16T07:32:37;95790.84;;;19.46;40.44
41062;BME280;26812;42.662;23.352;2022-10-16T07:35:03;95794.88;;;19.21;41.50
41062;BME280;26812;42.662;23.352;2022-10-16T07:37:28;95796.22;;;19.43;41.07
41062;BME280;26812;42.662;23.352;2022-10-16T07:39:54;95790.66;;;20.37;39.53
41062;BME280;26812;42.662;23.352;2022-10-16T07:42:19;95803.28;;;21.38;38.04
41062;BME280;26812;42.662;23.352;2022-10-16T07:44:45;95800.63;;;21.88;36.50
41062;BME280;26812;42.662;23.352;2022-10-16T07:47:10;95799.81;;;21.87;36.39
41062;BME280;26812;42.662;23.352;2022-10-16T07:49:36;95788.59;;;21.08;37.87
41062;BME280;26812;42.662;23.352;2022-10-16T07:52:01;95809.19;;;20.60;38.39
41062;BME280;26812;42.662;23.352;2022-10-16T07:54:26;95792.38;;;19.91;39.23
41062;BME280;26812;42.662;23.352;2022-10-16T07:56:52;95813.88;;;19.45;40.90
41062;BME280;26812;42.662;23.352;2022-10-16T07:59:17;95791.28;;;19.33;41.58
41062;BME280;26812;42.662;23.352;2022-10-16T08:01:43;95794.03;;;19.96;40.34
41062;BME280;26812;42.662;23.352;2022-10-16T08:04:11;95819.09;;;21.45;37.17
41062;BME280;26812;42.662;23.352;2022-10-16T08:06:38;95815.16;;;22.98;33.42
41062;BME280;26812;42.662;23.352;2022-10-16T08:09:04;95777.19;;;21.94;35.57
41062;BME280;26812;42.662;23.352;2022-10-16T08:11:31;95811.19;;;22.95;34.84
41062;BME280;26812;42.662;23.352;2022-10-16T08:13:56;95807.81;;;23.09;34.52
41062;BME280;26812;42.662;23.352;2022-10-16T08:16:22;95813.38;;;23.53;33.55
41062;BME280;26812;42.662;23.352;2022-10-16T08:18:47;95804.66;;;24.29;32.44
41062;BME280;26812;42.662;23.352;2022-10-16T08:21:15;95814.50;;;25.10;31.44
41062;BME280;26812;42.662;23.352;2022-10-16T08:23:41;95796.56;;;24.02;30.73
41062;BME280;26812;42.662;23.352;2022-10-16T08:26:08;95805.59;;;24.58;31.85
41062;BME280;26812;42.662;23.352;2022-10-16T08:28:34;95802.50;;;25.85;29.54
41062;BME280;26812;42.662;23.352;2022-10-16T08:31:14;95793.78;;;26.47;27.83
41062;BME280;26812;42.662;23.352;2022-10-16T08:33:42;95792.09;;;26.85;27.46
41062;BME280;26812;42.662;23.352;2022-10-16T08:36:09;95793.78;;;26.22;27.91
41062;BME280;26812;42.662;23.352;2022-10-16T08:38:34;95793.81;;;25.80;28.46
41062;BME280;26812;42.662;23.352;2022-10-16T08:48:57;95799.13;;;23.03;32.12
41062;BME280;26812;42.662;23.352;2022-10-16T08:51:24;95800.63;;;23.71;31.18
41062;BME280;26812;42.662;23.352;2022-10-16T08:53:58;95778.88;;;23.18;31.74
41062;BME280;26812;42.662;23.352;2022-10-16T08:56:25;95790.47;;;23.79;31.55
41062;BME280;26812;42.662;23.352;2022-10-16T08:58:52;95809.22;;;23.66;30.98
41062;BME280;26812;42.662;23.352;2022-10-16T09:01:20;95794.81;;;22.72;31.67
41062;BME280;26812;42.662;23.352;2022-10-16T09:06:35;95805.59;;;22.31;32.88
41062;BME280;26812;42.662;23.352;2022-10-16T09:20:03;95763.47;;;23.92;27.96
41062;BME280;26812;42.662;23.352;2022-10-16T09:22:32;95794.31;;;23.67;29.43
41062;BME280;26812;42.662;23.352;2022-10-16T09:25:00;95785.69;;;23.69;30.35
41062;BME280;26812;42.662;23.352;2022-10-16T09:27:37;95801.16;;;23.10;29.43
41062;BME280;26812;42.662;23.352;2022-10-16T09:30:14;95789.88;;;22.85;30.36
41062;BME280;26812;42.662;23.352;2022-10-16T09:32:42;95798.38;;;22.46;30.54
41062;BME280;26812;42.662;23.352;2022-10-16T09:35:20;95782.31;;;21.95;31.10
41062;BME280;26812;42.662;23.352;2022-10-16T09:37:49;95772.88;;;21.70;30.65
41062;BME280;26812;42.662;23.352;2022-10-16T09:40:35;95780.38;;;21.08;31.69
41062;BME280;26812;42.662;23.352;2022-10-16T09:45:42;95784.97;;;21.65;30.98
41062;BME280;26812;42.662;23.352;2022-10-16T09:48:11;95794.38;;;21.03;31.46
41062;BME280;26812;42.662;23.352;2022-10-16T09:50:37;95761.91;;;20.08;33.06
41062;BME280;26812;42.662;23.352;2022-10-16T09:53:14;95790.00;;;20.60;33.22
41062;BME280;26812;42.662;23.352;2022-10-16T09:55:52;95774.97;;;21.54;31.83
41062;BME280;26812;42.662;23.352;2022-10-16T09:58:22;95771.31;;;23.08;30.20
41062;BME280;26812;42.662;23.352;2022-10-16T10:00:53;95766.72;;;24.08;28.01
41062;BME280;26812;42.662;23.352;2022-10-16T10:03:45;95782.50;;;24.84;27.14
41062;BME280;26812;42.662;23.352;2022-10-16T10:06:17;95772.34;;;25.02;26.63
41062;BME280;26812;42.662;23.352;2022-10-16T10:08:58;95766.91;;;24.36;26.09
41062;BME280;26812;42.662;23.352;2022-10-16T10:16:50;95759.47;;;22.71;28.36
41062;BME280;26812;42.662;23.352;2022-10-16T10:19:19;95767.31;;;23.02;28.75
41062;BME280;26812;42.662;23.352;2022-10-16T10:21:45;95765.09;;;23.56;27.76
41062;BME280;26812;42.662;23.352;2022-10-16T10:24:14;95758.81;;;24.65;27.13
41062;BME280;26812;42.662;23.352;2022-10-16T10:26:57;95767.00;;;25.84;24.96
41062;BME280;26812;42.662;23.352;2022-10-16T10:29:58;95751.59;;;26.40;22.88
41062;BME280;26812;42.662;23.352;2022-10-16T10:32:36;95753.50;;;26.64;22.63
41062;BME280;26812;42.662;23.352;2022-10-16T10:38:06;95733.50;;;27.15;22.81
41062;BME280;26812;42.662;23.352;2022-10-16T10:43:16;95739.13;;;27.05;21.72
41062;BME280;26812;42.662;23.352;2022-10-16T10:45:57;95719.00;;;26.90;23.82
41062;BME280;26812;42.662;23.352;2022-10-16T10:54:01;95730.69;;;25.50;23.71
41062;BME280;26812;42.662;23.352;2022-10-16T10:56:50;95738.53;;;25.19;25.43
41062;BME280;26812;42.662;23.352;2022-10-16T11:02:40;95719.09;;;24.76;25.83
41062;BME280;26812;42.662;23.352;2022-10-16T11:10:46;95713.03;;;24.42;24.84
41062;BME280;26812;42.662;23.352;2022-10-16T11:13:31;95717.09;;;23.97;25.19
41062;BME280;26812;42.662;23.352;2022-10-16T11:16:00;95700.97;;;23.48;24.74
41062;BME280;26812;42.662;23.352;2022-10-16T11:21:10;95709.31;;;23.14;25.08
41062;BME280;26812;42.662;23.352;2022-10-16T11:23:46;95696.34;;;22.11;26.41
41062;BME280;26812;42.662;23.352;2022-10-16T11:26:20;95689.16;;;21.76;27.20
41062;BME280;26812;42.662;23.352;2022-10-16T11:28:51;95689.72;;;22.15;27.39
41062;BME280;26812;42.662;23.352;2022-10-16T11:31:29;95698.84;;;22.23;27.07
41062;BME280;26812;42.662;23.352;2022-10-16T11:36:50;95692.09;;;22.17;26.75
41062;BME280;26812;42.662;23.352;2022-10-16T11:39:26;95698.16;;;22.03;26.51
41062;BME280;26812;42.662;23.352;2022-10-16T11:42:09;95701.41;;;22.09;27.02
41062;BME280;26812;42.662;23.352;2022-10-16T11:44:42;95710.91;;;22.45;26.45
41062;BME280;26812;42.662;23.352;2022-10-16T11:49:52;95707.78;;;22.46;27.09
41062;BME280;26812;42.662;23.352;2022-10-16T11:54:51;95691.41;;;22.90;26.29
41062;BME280;26812;42.662;23.352;2022-10-16T11:57:24;95702.44;;;22.94;26.63
41062;BME280;26812;42.662;23.352;2022-10-16T11:59:56;95709.63;;;23.02;26.70
41062;BME280;26812;42.662;23.352;2022-10-16T12:02:38;95703.59;;;23.78;26.03
41062;BME280;26812;42.662;23.352;2022-10-16T12:07:45;95701.31;;;24.56;25.72
41062;BME280;26812;42.662;23.352;2022-10-16T12:10:23;95704.50;;;24.76;27.00
41062;BME280;26812;42.662;23.352;2022-10-16T12:12:49;95697.94;;;25.05;25.58
41062;BME280;26812;42.662;23.352;2022-10-16T12:17:43;95702.63;;;24.98;26.56
41062;BME280;26812;42.662;23.352;2022-10-16T12:22:42;95706.91;;;24.81;25.89
41062;BME280;26812;42.662;23.352;2022-10-16T12:25:37;95700.72;;;25.16;25.12
41062;BME280;26812;42.662;23.352;2022-10-16T12:28:22;95697.19;;;25.37;25.44
41062;BME280;26812;42.662;23.352;2022-10-16T12:30:55;95693.66;;;25.68;25.50
41062;BME280;26812;42.662;23.352;2022-10-16T12:33:32;95694.06;;;25.53;26.18
41062;BME280;26812;42.662;23.352;2022-10-16T12:36:00;95686.78;;;24.66;24.45
41062;BME280;26812;42.662;23.352;2022-10-16T12:38:38;95706.63;;;24.21;25.13
41062;BME280;26812;42.662;23.352;2022-10-16T12:41:08;95700.03;;;24.32;24.88
41062;BME280;26812;42.662;23.352;2022-10-16T12:43:46;95703.22;;;24.41;25.28
41062;BME280;26812;42.662;23.352;2022-10-16T12:48:42;95714.13;;;24.27;24.90
41062;BME280;26812;42.662;23.352;2022-10-16T12:51:25;95707.13;;;24.37;25.12
41062;BME280;26812;42.662;23.352;2022-10-16T12:54:05;95705.09;;;24.27;24.95
41062;BME280;26812;42.662;23.352;2022-10-16T13:27:37;95702.66;;;25.08;23.85
41062;BME280;26812;42.662;23.352;2022-10-16T13:32:34;95712.88;;;24.14;25.04
41062;BME280;26812;42.662;23.352;2022-10-16T13:34:59;95707.59;;;24.50;24.90
41062;BME280;26812;42.662;23.352;2022-10-16T13:37:26;95706.91;;;24.05;25.55
41062;BME280;26812;42.662;23.352;2022-10-16T13:40:09;95715.41;;;23.82;26.15
41062;BME280;26812;42.662;23.352;2022-10-16T13:42:42;95723.00;;;23.96;27.31
41062;BME280;26812;42.662;23.352;2022-10-16T13:45:18;95726.63;;;24.14;25.68
41062;BME280;26812;42.662;23.352;2022-10-16T13:47:44;95713.78;;;24.29;25.87
41062;BME280;26812;42.662;23.352;2022-10-16T13:50:17;95718.28;;;24.72;25.79
41062;BME280;26812;42.662;23.352;2022-10-16T13:52:43;95725.84;;;24.93;25.86
41062;BME280;26812;42.662;23.352;2022-10-16T13:55:13;95729.69;;;24.67;25.89
41062;BME280;26812;42.662;23.352;2022-10-16T13:57:39;95721.03;;;24.69;26.46
41062;BME280;26812;42.662;23.352;2022-10-16T14:00:21;95723.00;;;24.65;26.36
41062;BME280;26812;42.662;23.352;2022-10-16T14:02:53;95732.63;;;24.27;27.06
41062;BME280;26812;42.662;23.352;2022-10-16T14:05:20;95711.97;;;23.92;26.12
41062;BME280;26812;42.662;23.352;2022-10-16T14:07:49;95719.44;;;23.47;27.27
41062;BME280;26812;42.662;23.352;2022-10-16T14:10:28;95722.22;;;22.73;28.22
41062;BME280;26812;42.662;23.352;2022-10-16T14:13:03;95727.44;;;22.52;28.35
41062;BME280;26812;42.662;23.352;2022-10-16T14:15:34;95737.88;;;22.39;28.34
41062;BME280;26812;42.662;23.352;2022-10-16T14:18:00;95735.22;;;22.16;28.03
41062;BME280;26812;42.662;23.352;2022-10-16T14:20:32;95719.06;;;21.85;29.62
41062;BME280;26812;42.662;23.352;2022-10-16T14:23:19;95737.94;;;21.90;28.97
41062;BME280;26812;42.662;23.352;2022-10-16T14:25:46;95732.69;;;21.55;29.70
41062;BME280;26812;42.662;23.352;2022-10-16T14:28:22;95742.03;;;21.08;30.21
41062;BME280;26812;42.662;23.352;2022-10-16T14:30:56;95749.16;;;20.70;31.10
41062;BME280;26812;42.662;23.352;2022-10-16T14:38:33;95740.25;;;20.38;30.67
41062;BME280;26812;42.662;23.352;2022-10-16T14:40:59;95712.81;;;20.15;30.81
41062;BME280;26812;42.662;23.352;2022-10-16T14:45:55;95754.63;;;20.16;31.02
41062;BME280;26812;42.662;23.352;2022-10-16T14:48:22;95761.31;;;19.99;32.56
41062;BME280;26812;42.662;23.352;2022-10-16T14:50:48;95749.72;;;19.55;32.13
41062;BME280;26812;42.662;23.352;2022-10-16T14:53:14;95753.38;;;19.15;32.31
41062;BME280;26812;42.662;23.352;2022-10-16T14:55:40;95765.00;;;19.12;32.77
41062;BME280;26812;42.662;23.352;2022-10-16T14:58:20;95748.69;;;19.00;32.90
41062;BME280;26812;42.662;23.352;2022-10-16T15:00:46;95768.09;;;19.11;33.44
41062;BME280;26812;42.662;23.352;2022-10-16T15:03:12;95766.31;;;19.03;33.50
41062;BME280;26812;42.662;23.352;2022-10-16T15:05:37;95758.03;;;18.99;33.27